ePrivacy and GPDR Cookie Consent by Cookie Consent
EmailTwitter


Observations de surface / France / LFBO (07630)

Régions: Québec | Canada | États-Unis | Europe | France | UK | Ailleurs
Station
Affichage
Infos & localisation pour LFBO (07630) | Aide pour décoder les METARs

Observations prises le 2021-09-21 à 22H30 UTC à TOULOUSE/BLAGNAC, FR (LFBO)

Température: 15.0 Celsius

Point de rosée: 13.0 Celsius

Humidité relative: 88%

Vents: Sud à 9 km/h ou 5 noeuds.

Pression au niveau moyen de la mer: 102.60 kilopascals.

Observation METAR:

LFBO 212230Z AUTO 18005KT CAVOK 15/13 Q1026 NOSIG=